sensor_id;sensor_type;location;lat;lon;timestamp;noise_LAeq;noise_LA_min;noise_LA_max;noise_LA01;noise_LA95
58303;Laerm;44109;52.398;7.024;2023-01-06T00:01:18;47.54;33.71;58.11;;
58303;Laerm;44109;52.398;7.024;2023-01-06T00:03:48;48.17;34.24;57.87;;
58303;Laerm;44109;52.398;7.024;2023-01-06T00:06:18;47.55;34.38;57.83;;
58303;Laerm;44109;52.398;7.024;2023-01-06T00:08:48;47.41;33.59;57.90;;
58303;Laerm;44109;52.398;7.024;2023-01-06T00:11:15;47.99;33.90;58.96;;
58303;Laerm;44109;52.398;7.024;2023-01-06T00:13:43;47.67;33.10;57.44;;
58303;Laerm;44109;52.398;7.024;2023-01-06T00:16:14;47.24;32.50;57.84;;
58303;Laerm;44109;52.398;7.024;2023-01-06T00:18:45;47.39;32.07;57.58;;
58303;Laerm;44109;52.398;7.024;2023-01-06T00:21:14;47.47;33.31;57.65;;
58303;Laerm;44109;52.398;7.024;2023-01-06T00:23:42;47.34;33.24;57.62;;
58303;Laerm;44109;52.398;7.024;2023-01-06T00:26:11;47.49;33.99;57.73;;
58303;Laerm;44109;52.398;7.024;2023-01-06T00:28:38;47.40;32.42;57.62;;
58303;Laerm;44109;52.398;7.024;2023-01-06T00:31:09;47.23;32.57;57.80;;
58303;Laerm;44109;52.398;7.024;2023-01-06T00:33:37;47.12;32.55;57.38;;
58303;Laerm;44109;52.398;7.024;2023-01-06T00:36:20;46.79;32.57;57.41;;
58303;Laerm;44109;52.398;7.024;2023-01-06T00:38:49;47.41;32.81;57.50;;
58303;Laerm;44109;52.398;7.024;2023-01-06T00:41:17;47.46;32.30;57.51;;
58303;Laerm;44109;52.398;7.024;2023-01-06T00:44:03;46.76;32.47;57.74;;
58303;Laerm;44109;52.398;7.024;2023-01-06T00:46:32;47.65;34.32;57.63;;
58303;Laerm;44109;52.398;7.024;2023-01-06T00:49:01;47.56;32.18;57.73;;
58303;Laerm;44109;52.398;7.024;2023-01-06T00:51:31;47.14;32.67;57.43;;
58303;Laerm;44109;52.398;7.024;2023-01-06T00:53:59;47.15;32.51;57.34;;
58303;Laerm;44109;52.398;7.024;2023-01-06T00:56:27;47.35;33.68;57.24;;
58303;Laerm;44109;52.398;7.024;2023-01-06T00:58:54;47.32;32.95;57.52;;
58303;Laerm;44109;52.398;7.024;2023-01-06T01:01:22;47.46;32.06;57.47;;
58303;Laerm;44109;52.398;7.024;2023-01-06T01:03:50;47.94;33.44;57.32;;
58303;Laerm;44109;52.398;7.024;2023-01-06T01:06:18;47.45;33.09;57.62;;
58303;Laerm;44109;52.398;7.024;2023-01-06T01:08:52;47.07;32.56;57.48;;
58303;Laerm;44109;52.398;7.024;2023-01-06T01:11:22;47.32;32.75;57.51;;
58303;Laerm;44109;52.398;7.024;2023-01-06T01:14:08;47.01;32.88;58.60;;
58303;Laerm;44109;52.398;7.024;2023-01-06T01:16:36;47.76;34.04;57.54;;
58303;Laerm;44109;52.398;7.024;2023-01-06T01:19:05;47.78;34.09;60.76;;
58303;Laerm;44109;52.398;7.024;2023-01-06T01:21:34;48.11;32.97;57.32;;
58303;Laerm;44109;52.398;7.024;2023-01-06T01:24:03;47.25;32.83;57.70;;
58303;Laerm;44109;52.398;7.024;2023-01-06T01:26:31;47.36;32.95;57.25;;
58303;Laerm;44109;52.398;7.024;2023-01-06T01:28:59;47.54;33.70;57.73;;
58303;Laerm;44109;52.398;7.024;2023-01-06T01:31:27;47.39;33.05;57.47;;
58303;Laerm;44109;52.398;7.024;2023-01-06T01:33:55;47.38;31.98;57.47;;
58303;Laerm;44109;52.398;7.024;2023-01-06T01:36:22;47.74;33.55;57.78;;
58303;Laerm;44109;52.398;7.024;2023-01-06T01:38:50;47.84;34.24;57.77;;
58303;Laerm;44109;52.398;7.024;2023-01-06T01:41:22;48.29;35.82;66.11;;
58303;Laerm;44109;52.398;7.024;2023-01-06T01:43:54;47.57;33.71;58.09;;
58303;Laerm;44109;52.398;7.024;2023-01-06T01:46:26;47.30;33.66;57.73;;
58303;Laerm;44109;52.398;7.024;2023-01-06T01:49:02;47.17;35.43;57.75;;
58303;Laerm;44109;52.398;7.024;2023-01-06T01:51:38;47.86;34.93;58.18;;
58303;Laerm;44109;52.398;7.024;2023-01-06T01:54:13;47.42;33.78;58.97;;
58303;Laerm;44109;52.398;7.024;2023-01-06T01:56:49;47.21;33.75;57.66;;
58303;Laerm;44109;52.398;7.024;2023-01-06T01:59:23;47.50;33.37;57.41;;
58303;Laerm;44109;52.398;7.024;2023-01-06T02:01:52;47.13;33.28;57.14;;
58303;Laerm;44109;52.398;7.024;2023-01-06T02:04:23;47.34;33.36;57.58;;
58303;Laerm;44109;52.398;7.024;2023-01-06T02:06:53;47.41;33.54;57.49;;
58303;Laerm;44109;52.398;7.024;2023-01-06T02:09:27;47.41;32.80;57.60;;
58303;Laerm;44109;52.398;7.024;2023-01-06T02:11:58;47.43;32.96;57.62;;
58303;Laerm;44109;52.398;7.024;2023-01-06T02:14:27;47.23;32.40;57.31;;
58303;Laerm;44109;52.398;7.024;2023-01-06T02:17:17;47.21;33.25;57.66;;
58303;Laerm;44109;52.398;7.024;2023-01-06T02:24:26;45.81;33.21;57.31;;
58303;Laerm;44109;52.398;7.024;2023-01-06T02:27:35;45.75;33.20;56.87;;
58303;Laerm;44109;52.398;7.024;2023-01-06T02:30:39;46.26;32.53;57.45;;
58303;Laerm;44109;52.398;7.024;2023-01-06T02:33:18;47.48;33.21;57.22;;
58303;Laerm;44109;52.398;7.024;2023-01-06T02:36:07;46.62;32.34;57.17;;
58303;Laerm;44109;52.398;7.024;2023-01-06T02:38:58;46.61;33.54;57.26;;
58303;Laerm;44109;52.398;7.024;2023-01-06T02:41:37;47.57;33.41;58.40;;
58303;Laerm;44109;52.398;7.024;2023-01-06T02:44:18;47.30;33.56;58.46;;
58303;Laerm;44109;52.398;7.024;2023-01-06T02:47:09;47.25;33.31;57.37;;
58303;Laerm;44109;52.398;7.024;2023-01-06T02:49:50;46.83;33.31;57.40;;
58303;Laerm;44109;52.398;7.024;2023-01-06T02:52:31;46.94;33.15;57.22;;
58303;Laerm;44109;52.398;7.024;2023-01-06T02:55:09;46.94;32.87;57.24;;
58303;Laerm;44109;52.398;7.024;2023-01-06T02:57:44;48.03;35.15;57.45;;
58303;Laerm;44109;52.398;7.024;2023-01-06T03:00:25;47.35;33.50;58.60;;
58303;Laerm;44109;52.398;7.024;2023-01-06T03:02:59;47.37;32.63;57.34;;
58303;Laerm;44109;52.398;7.024;2023-01-06T03:05:34;47.08;32.92;57.50;;
58303;Laerm;44109;52.398;7.024;2023-01-06T03:08:08;47.33;32.80;57.17;;
58303;Laerm;44109;52.398;7.024;2023-01-06T03:10:43;47.58;33.76;57.21;;
58303;Laerm;44109;52.398;7.024;2023-01-06T03:13:16;46.72;32.73;57.28;;
58303;Laerm;44109;52.398;7.024;2023-01-06T03:15:47;47.41;33.73;57.45;;
58303;Laerm;44109;52.398;7.024;2023-01-06T03:18:15;47.31;32.88;57.30;;
58303;Laerm;44109;52.398;7.024;2023-01-06T03:20:46;47.92;33.74;58.00;;
58303;Laerm;44109;52.398;7.024;2023-01-06T03:23:16;48.14;34.27;58.19;;
58303;Laerm;44109;52.398;7.024;2023-01-06T03:25:43;47.48;33.51;57.36;;
58303;Laerm;44109;52.398;7.024;2023-01-06T03:28:11;47.74;34.36;57.71;;
58303;Laerm;44109;52.398;7.024;2023-01-06T03:30:45;48.76;35.42;58.02;;
58303;Laerm;44109;52.398;7.024;2023-01-06T03:33:24;46.98;33.22;57.30;;
58303;Laerm;44109;52.398;7.024;2023-01-06T03:36:07;47.19;33.47;57.21;;
58303;Laerm;44109;52.398;7.024;2023-01-06T03:38:49;47.04;34.07;58.00;;
58303;Laerm;44109;52.398;7.024;2023-01-06T03:41:31;47.35;33.22;61.05;;
58303;Laerm;44109;52.398;7.024;2023-01-06T03:44:27;46.97;33.23;57.42;;
58303;Laerm;44109;52.398;7.024;2023-01-06T03:47:04;47.23;33.70;57.44;;
58303;Laerm;44109;52.398;7.024;2023-01-06T03:49:44;48.14;34.57;57.69;;
58303;Laerm;44109;52.398;7.024;2023-01-06T03:52:27;48.27;34.06;60.11;;
58303;Laerm;44109;52.398;7.024;2023-01-06T03:55:04;47.80;34.13;58.09;;
58303;Laerm;44109;52.398;7.024;2023-01-06T03:57:36;47.56;34.13;57.46;;
58303;Laerm;44109;52.398;7.024;2023-01-06T04:00:13;47.74;34.24;59.51;;
58303;Laerm;44109;52.398;7.024;2023-01-06T04:02:45;48.82;35.36;61.78;;
58303;Laerm;44109;52.398;7.024;2023-01-06T04:05:17;48.84;37.60;59.74;;
58303;Laerm;44109;52.398;7.024;2023-01-06T04:07:47;48.63;35.26;59.28;;
58303;Laerm;44109;52.398;7.024;2023-01-06T04:10:17;48.11;34.53;57.57;;
58303;Laerm;44109;52.398;7.024;2023-01-06T04:12:46;47.79;35.00;57.57;;
58303;Laerm;44109;52.398;7.024;2023-01-06T04:15:15;49.55;35.13;58.52;;
58303;Laerm;44109;52.398;7.024;2023-01-06T04:17:45;47.82;34.04;57.93;;
58303;Laerm;44109;52.398;7.024;2023-01-06T04:20:16;47.60;33.64;57.63;;
58303;Laerm;44109;52.398;7.024;2023-01-06T04:22:46;48.74;36.31;57.67;;
58303;Laerm;44109;52.398;7.024;2023-01-06T04:25:13;47.87;34.83;57.66;;
58303;Laerm;44109;52.398;7.024;2023-01-06T04:27:42;47.88;35.70;58.02;;
58303;Laerm;44109;52.398;7.024;2023-01-06T04:30:11;48.36;34.40;58.33;;
58303;Laerm;44109;52.398;7.024;2023-01-06T04:32:39;47.49;33.44;58.16;;
58303;Laerm;44109;52.398;7.024;2023-01-06T04:35:08;48.76;34.96;57.80;;
58303;Laerm;44109;52.398;7.024;2023-01-06T04:37:36;48.11;35.62;57.93;;
58303;Laerm;44109;52.398;7.024;2023-01-06T04:40:07;48.34;34.22;58.06;;
58303;Laerm;44109;52.398;7.024;2023-01-06T04:42:35;48.81;35.73;57.73;;
58303;Laerm;44109;52.398;7.024;2023-01-06T04:45:17;48.73;36.96;61.01;;
58303;Laerm;44109;52.398;7.024;2023-01-06T04:47:44;48.14;36.66;58.83;;
58303;Laerm;44109;52.398;7.024;2023-01-06T04:50:12;49.32;37.23;64.75;;
58303;Laerm;44109;52.398;7.024;2023-01-06T04:52:40;48.56;38.07;57.59;;
58303;Laerm;44109;52.398;7.024;2023-01-06T04:55:09;49.15;36.97;57.92;;
58303;Laerm;44109;52.398;7.024;2023-01-06T04:57:37;48.42;35.82;57.56;;
58303;Laerm;44109;52.398;7.024;2023-01-06T05:00:07;49.45;37.96;58.51;;
58303;Laerm;44109;52.398;7.024;2023-01-06T05:02:34;49.73;38.78;57.97;;
58303;Laerm;44109;52.398;7.024;2023-01-06T05:05:02;48.46;37.89;58.01;;
58303;Laerm;44109;52.398;7.024;2023-01-06T05:07:30;50.18;39.61;59.67;;
58303;Laerm;44109;52.398;7.024;2023-01-06T05:09:57;49.71;37.77;67.62;;
58303;Laerm;44109;52.398;7.024;2023-01-06T05:12:26;50.22;39.74;58.18;;
58303;Laerm;44109;52.398;7.024;2023-01-06T05:14:54;50.24;40.73;59.52;;
58303;Laerm;44109;52.398;7.024;2023-01-06T05:17:22;50.11;41.98;59.12;;
58303;Laerm;44109;52.398;7.024;2023-01-06T05:19:50;50.80;39.84;61.27;;
58303;Laerm;44109;52.398;7.024;2023-01-06T05:22:18;48.73;37.39;60.55;;
58303;Laerm;44109;52.398;7.024;2023-01-06T05:24:45;48.99;36.81;63.13;;
58303;Laerm;44109;52.398;7.024;2023-01-06T05:27:13;48.30;36.50;61.15;;
58303;Laerm;44109;52.398;7.024;2023-01-06T05:29:42;49.45;36.79;59.86;;
58303;Laerm;44109;52.398;7.024;2023-01-06T05:32:10;49.86;38.35;58.44;;
58303;Laerm;44109;52.398;7.024;2023-01-06T05:34:37;49.38;39.84;57.39;;
58303;Laerm;44109;52.398;7.024;2023-01-06T05:37:05;48.69;38.21;58.20;;
58303;Laerm;44109;52.398;7.024;2023-01-06T05:39:33;49.64;37.28;60.09;;
58303;Laerm;44109;52.398;7.024;2023-01-06T05:42:00;49.82;38.90;58.95;;
58303;Laerm;44109;52.398;7.024;2023-01-06T05:44:28;50.15;40.55;57.60;;
58303;Laerm;44109;52.398;7.024;2023-01-06T05:46:57;48.53;36.73;57.63;;
58303;Laerm;44109;52.398;7.024;2023-01-06T05:49:24;48.25;35.67;58.07;;
58303;Laerm;44109;52.398;7.024;2023-01-06T05:51:52;48.86;36.00;62.14;;
58303;Laerm;44109;52.398;7.024;2023-01-06T05:54:20;49.64;38.97;59.68;;
58303;Laerm;44109;52.398;7.024;2023-01-06T05:56:47;48.28;37.29;57.54;;
58303;Laerm;44109;52.398;7.024;2023-01-06T05:59:15;49.01;37.21;57.68;;
58303;Laerm;44109;52.398;7.024;2023-01-06T06:01:42;48.69;36.11;58.51;;
58303;Laerm;44109;52.398;7.024;2023-01-06T06:04:12;50.03;40.96;58.54;;
58303;Laerm;44109;52.398;7.024;2023-01-06T06:06:40;49.42;40.62;58.34;;
58303;Laerm;44109;52.398;7.024;2023-01-06T06:09:08;48.51;39.01;57.67;;
58303;Laerm;44109;52.398;7.024;2023-01-06T06:11:35;49.97;39.32;57.93;;
58303;Laerm;44109;52.398;7.024;2023-01-06T06:14:03;49.91;38.91;57.95;;
58303;Laerm;44109;52.398;7.024;2023-01-06T06:16:31;52.06;37.20;67.45;;
58303;Laerm;44109;52.398;7.024;2023-01-06T06:18:58;49.98;39.76;59.33;;
58303;Laerm;44109;52.398;7.024;2023-01-06T06:21:29;51.01;41.41;58.61;;
58303;Laerm;44109;52.398;7.024;2023-01-06T06:23:58;49.92;40.80;57.93;;
58303;Laerm;44109;52.398;7.024;2023-01-06T06:26:27;51.04;42.36;66.92;;
58303;Laerm;44109;52.398;7.024;2023-01-06T06:28:55;50.83;40.50;60.94;;
58303;Laerm;44109;52.398;7.024;2023-01-06T06:31:25;50.09;39.82;63.89;;
58303;Laerm;44109;52.398;7.024;2023-01-06T06:33:55;50.81;40.71;74.70;;
58303;Laerm;44109;52.398;7.024;2023-01-06T06:36:26;51.42;40.20;65.44;;
58303;Laerm;44109;52.398;7.024;2023-01-06T06:38:54;52.59;42.50;66.74;;
58303;Laerm;44109;52.398;7.024;2023-01-06T06:41:24;49.78;40.65;57.59;;
58303;Laerm;44109;52.398;7.024;2023-01-06T06:43:52;50.84;43.08;60.68;;
58303;Laerm;44109;52.398;7.024;2023-01-06T06:46:20;51.40;40.56;69.64;;
58303;Laerm;44109;52.398;7.024;2023-01-06T06:48:48;51.65;39.95;72.06;;
58303;Laerm;44109;52.398;7.024;2023-01-06T06:51:19;50.93;39.92;65.07;;
58303;Laerm;44109;52.398;7.024;2023-01-06T06:53:49;56.47;42.01;82.76;;
58303;Laerm;44109;52.398;7.024;2023-01-06T06:56:19;52.08;40.11;75.39;;
58303;Laerm;44109;52.398;7.024;2023-01-06T06:58:47;49.39;39.33;61.30;;
58303;Laerm;44109;52.398;7.024;2023-01-06T07:01:17;50.43;40.15;60.26;;
58303;Laerm;44109;52.398;7.024;2023-01-06T07:03:45;50.31;39.07;58.42;;
58303;Laerm;44109;52.398;7.024;2023-01-06T07:06:16;49.58;37.56;58.95;;
58303;Laerm;44109;52.398;7.024;2023-01-06T07:08:47;50.39;40.48;59.88;;
58303;Laerm;44109;52.398;7.024;2023-01-06T07:11:16;51.70;39.66;61.38;;
58303;Laerm;44109;52.398;7.024;2023-01-06T07:13:44;50.27;39.76;58.07;;
58303;Laerm;44109;52.398;7.024;2023-01-06T07:16:12;49.56;40.37;59.74;;
58303;Laerm;44109;52.398;7.024;2023-01-06T07:18:40;52.35;43.58;63.65;;
58303;Laerm;44109;52.398;7.024;2023-01-06T07:21:07;50.32;41.77;59.84;;
58303;Laerm;44109;52.398;7.024;2023-01-06T07:23:35;52.31;42.72;66.87;;
58303;Laerm;44109;52.398;7.024;2023-01-06T07:26:04;51.30;41.34;59.08;;
58303;Laerm;44109;52.398;7.024;2023-01-06T07:28:32;50.76;40.55;60.52;;
58303;Laerm;44109;52.398;7.024;2023-01-06T07:31:00;50.00;41.60;59.69;;
58303;Laerm;44109;52.398;7.024;2023-01-06T07:33:28;51.17;41.64;65.63;;
58303;Laerm;44109;52.398;7.024;2023-01-06T07:35:56;53.65;42.85;66.75;;
58303;Laerm;44109;52.398;7.024;2023-01-06T07:38:25;51.49;43.08;61.21;;
58303;Laerm;44109;52.398;7.024;2023-01-06T07:40:57;52.82;44.71;70.62;;
58303;Laerm;44109;52.398;7.024;2023-01-06T07:43:27;50.73;41.72;60.02;;
58303;Laerm;44109;52.398;7.024;2023-01-06T07:45:55;51.49;43.59;66.71;;
58303;Laerm;44109;52.398;7.024;2023-01-06T07:48:22;50.94;41.93;62.47;;
58303;Laerm;44109;52.398;7.024;2023-01-06T07:50:50;52.03;45.33;64.39;;
58303;Laerm;44109;52.398;7.024;2023-01-06T07:53:18;53.07;44.45;77.31;;
58303;Laerm;44109;52.398;7.024;2023-01-06T07:55:50;54.73;41.98;82.12;;
58303;Laerm;44109;52.398;7.024;2023-01-06T07:58:19;62.23;47.78;87.51;;
58303;Laerm;44109;52.398;7.024;2023-01-06T08:00:50;66.06;47.60;93.00;;
58303;Laerm;44109;52.398;7.024;2023-01-06T08:03:18;54.37;47.85;77.45;;
58303;Laerm;44109;52.398;7.024;2023-01-06T08:05:45;53.88;47.04;77.83;;
58303;Laerm;44109;52.398;7.024;2023-01-06T08:08:13;62.45;47.65;91.13;;
58303;Laerm;44109;52.398;7.024;2023-01-06T08:10:43;70.22;50.25;98.38;;
58303;Laerm;44109;52.398;7.024;2023-01-06T08:13:11;60.39;42.62;85.00;;
58303;Laerm;44109;52.398;7.024;2023-01-06T08:15:39;53.26;41.90;79.90;;
58303;Laerm;44109;52.398;7.024;2023-01-06T08:18:08;55.08;41.07;83.29;;
58303;Laerm;44109;52.398;7.024;2023-01-06T08:20:35;53.30;42.88;81.14;;
58303;Laerm;44109;52.398;7.024;2023-01-06T08:23:03;50.49;41.04;68.91;;
58303;Laerm;44109;52.398;7.024;2023-01-06T08:25:31;59.56;47.26;81.87;;
58303;Laerm;44109;52.398;7.024;2023-01-06T08:27:58;60.16;46.51;82.66;;
58303;Laerm;44109;52.398;7.024;2023-01-06T08:30:27;61.39;45.36;81.98;;
58303;Laerm;44109;52.398;7.024;2023-01-06T08:32:55;58.82;44.59;78.97;;
58303;Laerm;44109;52.398;7.024;2023-01-06T08:35:25;56.92;44.91;83.70;;
58303;Laerm;44109;52.398;7.024;2023-01-06T08:37:53;58.48;44.35;82.93;;
58303;Laerm;44109;52.398;7.024;2023-01-06T08:40:20;51.92;41.56;74.94;;
58303;Laerm;44109;52.398;7.024;2023-01-06T08:42:48;51.34;42.13;78.96;;
58303;Laerm;44109;52.398;7.024;2023-01-06T08:45:16;51.94;39.60;74.10;;
58303;Laerm;44109;52.398;7.024;2023-01-06T08:47:43;53.11;40.79;77.60;;
58303;Laerm;44109;52.398;7.024;2023-01-06T08:50:11;54.94;39.03;79.09;;
58303;Laerm;44109;52.398;7.024;2023-01-06T08:52:40;56.25;42.02;81.21;;
58303;Laerm;44109;52.398;7.024;2023-01-06T08:55:08;54.32;42.56;77.58;;
58303;Laerm;44109;52.398;7.024;2023-01-06T08:57:35;51.52;40.59;75.70;;
58303;Laerm;44109;52.398;7.024;2023-01-06T09:00:05;59.37;44.29;91.70;;
58303;Laerm;44109;52.398;7.024;2023-01-06T09:02:33;66.12;43.92;86.58;;
58303;Laerm;44109;52.398;7.024;2023-01-06T09:05:00;56.96;43.59;78.31;;
58303;Laerm;44109;52.398;7.024;2023-01-06T09:07:28;53.12;43.11;80.97;;
58303;Laerm;44109;52.398;7.024;2023-01-06T09:09:57;54.66;43.03;73.39;;
58303;Laerm;44109;52.398;7.024;2023-01-06T09:12:25;54.80;43.14;79.85;;
58303;Laerm;44109;52.398;7.024;2023-01-06T09:14:52;50.15;41.67;73.24;;
58303;Laerm;44109;52.398;7.024;2023-01-06T09:17:20;50.82;40.49;71.76;;
58303;Laerm;44109;52.398;7.024;2023-01-06T09:19:48;50.05;39.16;67.10;;
58303;Laerm;44109;52.398;7.024;2023-01-06T09:22:15;50.12;42.13;67.97;;
58303;Laerm;44109;52.398;7.024;2023-01-06T09:24:43;51.00;39.91;69.84;;
58303;Laerm;44109;52.398;7.024;2023-01-06T09:27:12;49.93;42.54;70.47;;
58303;Laerm;44109;52.398;7.024;2023-01-06T09:29:40;49.25;38.91;60.33;;
58303;Laerm;44109;52.398;7.024;2023-01-06T09:32:08;51.18;39.91;70.15;;
58303;Laerm;44109;52.398;7.024;2023-01-06T09:34:36;50.06;39.13;59.82;;
58303;Laerm;44109;52.398;7.024;2023-01-06T09:37:03;52.20;43.44;65.60;;
58303;Laerm;44109;52.398;7.024;2023-01-06T09:39:31;51.19;40.23;68.76;;
58303;Laerm;44109;52.398;7.024;2023-01-06T09:42:38;49.82;40.97;68.33;;
58303;Laerm;44109;52.398;7.024;2023-01-06T09:45:17;48.76;40.05;61.73;;
58303;Laerm;44109;52.398;7.024;2023-01-06T09:47:51;50.10;38.64;65.76;;
58303;Laerm;44109;52.398;7.024;2023-01-06T09:50:32;49.19;39.36;65.64;;
58303;Laerm;44109;52.398;7.024;2023-01-06T09:53:05;50.30;39.56;66.13;;
58303;Laerm;44109;52.398;7.024;2023-01-06T09:55:42;53.39;40.83;82.72;;
58303;Laerm;44109;52.398;7.024;2023-01-06T09:58:13;53.43;38.88;83.22;;
58303;Laerm;44109;52.398;7.024;2023-01-06T10:00:44;50.45;39.06;74.85;;
58303;Laerm;44109;52.398;7.024;2023-01-06T10:03:15;51.59;39.43;80.63;;
58303;Laerm;44109;52.398;7.024;2023-01-06T10:05:57;48.87;40.31;57.62;;
58303;Laerm;44109;52.398;7.024;2023-01-06T10:08:40;49.41;39.29;67.56;;
58303;Laerm;44109;52.398;7.024;2023-01-06T10:11:14;50.08;38.61;68.42;;
58303;Laerm;44109;52.398;7.024;2023-01-06T10:14:04;51.98;39.40;73.66;;
58303;Laerm;44109;52.398;7.024;2023-01-06T10:16:53;49.09;40.28;63.85;;
58303;Laerm;44109;52.398;7.024;2023-01-06T10:19:43;49.09;39.09;68.02;;
58303;Laerm;44109;52.398;7.024;2023-01-06T10:22:24;49.50;40.89;66.86;;
58303;Laerm;44109;52.398;7.024;2023-01-06T10:25:04;48.77;39.64;57.93;;
58303;Laerm;44109;52.398;7.024;2023-01-06T10:27:40;50.34;38.11;71.61;;
58303;Laerm;44109;52.398;7.024;2023-01-06T10:30:19;48.59;39.85;59.48;;
58303;Laerm;44109;52.398;7.024;2023-01-06T10:32:50;49.38;39.04;63.63;;
58303;Laerm;44109;52.398;7.024;2023-01-06T10:35:20;48.60;38.44;62.65;;
58303;Laerm;44109;52.398;7.024;2023-01-06T10:37:50;49.12;40.55;64.99;;
58303;Laerm;44109;52.398;7.024;2023-01-06T10:40:22;52.47;39.08;72.02;;
58303;Laerm;44109;52.398;7.024;2023-01-06T10:42:54;50.25;40.75;71.86;;
58303;Laerm;44109;52.398;7.024;2023-01-06T10:45:31;50.45;41.02;69.58;;
58303;Laerm;44109;52.398;7.024;2023-01-06T10:48:01;51.64;40.88;67.34;;
58303;Laerm;44109;52.398;7.024;2023-01-06T10:50:29;49.66;41.71;63.36;;
58303;Laerm;44109;52.398;7.024;2023-01-06T10:52:57;48.41;39.24;60.16;;
58303;Laerm;44109;52.398;7.024;2023-01-06T10:55:35;48.49;40.30;57.38;;
58303;Laerm;44109;52.398;7.024;2023-01-06T10:58:20;49.39;40.34;63.36;;
58303;Laerm;44109;52.398;7.024;2023-01-06T11:00:59;48.92;39.19;59.42;;
58303;Laerm;44109;52.398;7.024;2023-01-06T11:03:28;49.75;39.64;63.17;;
58303;Laerm;44109;52.398;7.024;2023-01-06T11:06:06;49.09;38.42;61.57;;
58303;Laerm;44109;52.398;7.024;2023-01-06T11:08:36;48.89;38.94;58.13;;
58303;Laerm;44109;52.398;7.024;2023-01-06T11:11:11;48.29;39.47;57.98;;
58303;Laerm;44109;52.398;7.024;2023-01-06T11:13:46;48.81;40.44;62.14;;
58303;Laerm;44109;52.398;7.024;2023-01-06T11:16:23;48.76;40.58;57.46;;
58303;Laerm;44109;52.398;7.024;2023-01-06T11:18:54;48.11;39.13;57.09;;
58303;Laerm;44109;52.398;7.024;2023-01-06T11:21:37;47.93;38.65;56.85;;
58303;Laerm;44109;52.398;7.024;2023-01-06T11:24:17;48.78;40.93;59.62;;
58303;Laerm;44109;52.398;7.024;2023-01-06T11:26:51;49.24;39.80;69.64;;
58303;Laerm;44109;52.398;7.024;2023-01-06T11:29:25;45.18;39.71;59.79;;
58303;Laerm;44109;52.398;7.024;2023-01-06T11:31:56;50.37;40.02;72.07;;
58303;Laerm;44109;52.398;7.024;2023-01-06T11:34:27;49.15;41.38;57.24;;
58303;Laerm;44109;52.398;7.024;2023-01-06T11:36:56;48.56;39.44;61.91;;
58303;Laerm;44109;52.398;7.024;2023-01-06T11:39:29;48.24;39.75;57.00;;
58303;Laerm;44109;52.398;7.024;2023-01-06T11:42:08;48.98;39.65;67.20;;
58303;Laerm;44109;52.398;7.024;2023-01-06T11:44:39;50.10;39.72;68.97;;
58303;Laerm;44109;52.398;7.024;2023-01-06T11:47:15;48.53;39.70;59.00;;
58303;Laerm;44109;52.398;7.024;2023-01-06T11:49:48;50.72;39.20;58.67;;
58303;Laerm;44109;52.398;7.024;2023-01-06T11:52:22;49.22;39.40;59.09;;
58303;Laerm;44109;52.398;7.024;2023-01-06T11:55:00;48.40;39.17;60.82;;
58303;Laerm;44109;52.398;7.024;2023-01-06T11:57:38;52.39;41.30;75.15;;
58303;Laerm;44109;52.398;7.024;2023-01-06T12:00:38;49.05;39.79;57.00;;
58303;Laerm;44109;52.398;7.024;2023-01-06T12:03:18;48.04;39.69;57.19;;
58303;Laerm;44109;52.398;7.024;2023-01-06T12:05:55;50.59;38.74;80.42;;
58303;Laerm;44109;52.398;7.024;2023-01-06T12:08:30;50.65;40.53;66.62;;
58303;Laerm;44109;52.398;7.024;2023-01-06T12:11:06;51.99;39.50;65.79;;
58303;Laerm;44109;52.398;7.024;2023-01-06T12:13:37;51.85;40.14;71.70;;
58303;Laerm;44109;52.398;7.024;2023-01-06T12:16:13;50.54;39.63;58.96;;
58303;Laerm;44109;52.398;7.024;2023-01-06T12:18:44;49.80;39.08;63.76;;
58303;Laerm;44109;52.398;7.024;2023-01-06T12:21:23;52.26;40.85;67.11;;
58303;Laerm;44109;52.398;7.024;2023-01-06T12:23:54;52.76;39.93;70.97;;
58303;Laerm;44109;52.398;7.024;2023-01-06T12:26:26;52.80;40.14;78.86;;
58303;Laerm;44109;52.398;7.024;2023-01-06T12:28:57;49.90;39.09;58.63;;
58303;Laerm;44109;52.398;7.024;2023-01-06T12:31:34;51.09;41.22;59.67;;
58303;Laerm;44109;52.398;7.024;2023-01-06T12:34:14;51.64;41.64;59.94;;
58303;Laerm;44109;52.398;7.024;2023-01-06T12:36:50;50.34;42.77;66.33;;
58303;Laerm;44109;52.398;7.024;2023-01-06T12:39:24;51.88;42.00;63.76;;
58303;Laerm;44109;52.398;7.024;2023-01-06T12:42:02;52.48;41.11;67.74;;
58303;Laerm;44109;52.398;7.024;2023-01-06T12:44:44;53.53;42.14;70.98;;
58303;Laerm;44109;52.398;7.024;2023-01-06T12:47:23;50.68;41.08;64.69;;
58303;Laerm;44109;52.398;7.024;2023-01-06T12:49:57;54.36;43.07;83.73;;
58303;Laerm;44109;52.398;7.024;2023-01-06T12:52:32;54.12;40.61;77.53;;
58303;Laerm;44109;52.398;7.024;2023-01-06T12:55:05;51.95;39.84;78.90;;
58303;Laerm;44109;52.398;7.024;2023-01-06T12:57:52;51.12;41.35;61.65;;
58303;Laerm;44109;52.398;7.024;2023-01-06T13:00:45;50.14;40.97;66.08;;
58303;Laerm;44109;52.398;7.024;2023-01-06T13:03:47;49.72;40.81;61.39;;
58303;Laerm;44109;52.398;7.024;2023-01-06T13:06:30;47.05;42.21;57.72;;
58303;Laerm;44109;52.398;7.024;2023-01-06T13:09:26;49.24;40.83;57.75;;
58303;Laerm;44109;52.398;7.024;2023-01-06T13:12:30;50.56;42.96;63.92;;
58303;Laerm;44109;52.398;7.024;2023-01-06T13:15:10;49.94;40.99;64.39;;
58303;Laerm;44109;52.398;7.024;2023-01-06T13:17:48;50.05;41.91;59.65;;
58303;Laerm;44109;52.398;7.024;2023-01-06T13:20:27;49.62;40.87;62.24;;
58303;Laerm;44109;52.398;7.024;2023-01-06T13:23:16;50.13;43.07;58.25;;
58303;Laerm;44109;52.398;7.024;2023-01-06T13:29:10;48.80;38.57;59.44;;
58303;Laerm;44109;52.398;7.024;2023-01-06T13:32:17;49.28;40.53;61.83;;
58303;Laerm;44109;52.398;7.024;2023-01-06T13:38:37;49.05;39.21;74.31;;
58303;Laerm;44109;52.398;7.024;2023-01-06T13:41:15;49.80;41.99;58.32;;
58303;Laerm;44109;52.398;7.024;2023-01-06T13:43:47;49.87;41.54;58.26;;
58303;Laerm;44109;52.398;7.024;2023-01-06T13:46:19;49.58;41.10;58.87;;
58303;Laerm;44109;52.398;7.024;2023-01-06T13:48:52;50.42;43.12;58.52;;
58303;Laerm;44109;52.398;7.024;2023-01-06T13:51:26;51.51;43.29;66.63;;
58303;Laerm;44109;52.398;7.024;2023-01-06T13:53:56;50.93;42.75;59.92;;
58303;Laerm;44109;52.398;7.024;2023-01-06T13:56:30;48.84;39.12;57.96;;
58303;Laerm;44109;52.398;7.024;2023-01-06T13:59:23;49.40;42.34;59.44;;
58303;Laerm;44109;52.398;7.024;2023-01-06T14:01:51;49.48;39.69;66.82;;
58303;Laerm;44109;52.398;7.024;2023-01-06T14:04:46;48.96;39.97;61.53;;
58303;Laerm;44109;52.398;7.024;2023-01-06T14:07:29;48.52;39.96;57.74;;
58303;Laerm;44109;52.398;7.024;2023-01-06T14:09:59;45.26;40.11;52.35;;
58303;Laerm;44109;52.398;7.024;2023-01-06T14:12:28;49.94;42.08;58.38;;
58303;Laerm;44109;52.398;7.024;2023-01-06T14:14:59;49.62;41.22;57.80;;
58303;Laerm;44109;52.398;7.024;2023-01-06T14:17:34;49.21;40.39;57.54;;
58303;Laerm;44109;52.398;7.024;2023-01-06T14:20:06;49.95;40.96;65.99;;
58303;Laerm;44109;52.398;7.024;2023-01-06T14:22:58;49.62;39.13;64.92;;
58303;Laerm;44109;52.398;7.024;2023-01-06T14:25:30;49.45;40.28;57.66;;
58303;Laerm;44109;52.398;7.024;2023-01-06T14:28:29;48.67;37.76;67.10;;